Time;durP1;ratioP1;P1;durP2;ratioP2;P2;SDS_P1;SDS_P2;PMS_P1;PMS_P2;Temp;Humidity;BMP_temperature;BMP_pressure;BME280_temperature;BME280_humidity;BME280_pressure;Samples;Min_cycle;Max_cycle;Signal;HPM_P1;HPM_P2
2024/04/15 00:01:36;;;;;;;0.40;0.40;;;18.40;65.40;;;;;;6534864;21;20229;-83
2024/04/15 00:04:02;;;;;;;0.40;0.30;;;18.30;65.80;;;;;;6491828;21;20251;-84
2024/04/15 00:06:28;;;;;;;1.27;0.30;;;18.30;66.40;;;;;;6492025;21;20217;-83
2024/04/15 00:08:54;;;;;;;0.40;0.40;;;18.30;65.60;;;;;;6534604;21;20233;-85
2024/04/15 00:11:19;;;;;;;1.08;0.65;;;18.30;65.70;;;;;;6534730;21;20661;-83
2024/04/15 00:13:45;;;;;;;0.32;0.32;;;18.30;65.60;;;;;;6580819;21;20260;-85
2024/04/15 00:16:11;;;;;;;0.80;0.40;;;18.40;65.40;;;;;;6534669;21;20806;-84
2024/04/15 00:18:37;;;;;;;0.38;0.35;;;18.30;65.60;;;;;;6534819;21;20803;-83
2024/04/15 00:21:04;;;;;;;1.10;0.40;;;18.30;65.60;;;;;;6491669;21;20795;-84
2024/04/15 00:23:30;;;;;;;0.90;0.40;;;18.30;65.80;;;;;;6498456;21;20233;-84
2024/04/15 00:25:57;;;;;;;0.35;0.30;;;18.30;65.80;;;;;;6534360;21;20628;-85
2024/04/15 00:28:23;;;;;;;0.70;0.38;;;18.30;65.90;;;;;;6492153;21;20373;-83
2024/04/15 00:30:49;;;;;;;0.40;0.40;;;18.30;65.90;;;;;;6578433;21;20213;-84
2024/04/15 00:33:17;;;;;;;0.82;0.43;;;18.30;65.90;;;;;;6535153;21;20263;-84
2024/04/15 00:35:45;;;;;;;1.33;0.40;;;18.30;65.60;;;;;;6535176;21;20635;-84
2024/04/15 00:38:10;;;;;;;0.32;0.32;;;18.30;65.80;;;;;;6534842;21;20229;-84
2024/04/15 00:40:36;;;;;;;0.98;0.40;;;18.30;65.70;;;;;;6490423;21;20594;-84
2024/04/15 00:43:02;;;;;;;0.30;0.30;;;18.30;65.50;;;;;;6577656;21;20224;-85
2024/04/15 00:45:30;;;;;;;0.35;0.35;;;18.40;65.50;;;;;;6491716;21;20225;-83
2024/04/15 00:47:57;;;;;;;0.40;0.40;;;18.30;65.80;;;;;;6578035;21;20225;-83
2024/04/15 00:50:24;;;;;;;0.32;0.32;;;18.30;65.60;;;;;;6492185;21;20316;-84
2024/04/15 00:52:50;;;;;;;1.75;0.40;;;18.30;65.90;;;;;;6534788;21;20603;-84
2024/04/15 00:55:16;;;;;;;0.40;0.30;;;18.20;65.90;;;;;;6490797;21;20766;-83
2024/04/15 00:57:43;;;;;;;0.85;0.40;;;18.20;65.90;;;;;;6491605;21;20236;-85
2024/04/15 01:00:12;;;;;;;0.60;0.30;;;18.20;65.90;;;;;;6578028;21;20217;-84
2024/04/15 01:02:38;;;;;;;0.40;0.30;;;18.20;66.00;;;;;;6535280;21;20214;-85
2024/04/15 01:05:05;;;;;;;0.57;0.40;;;18.30;66.00;;;;;;6534709;21;20232;-83
2024/04/15 01:07:30;;;;;;;0.47;0.30;;;18.30;66.00;;;;;;6534305;21;20259;-84
2024/04/15 01:09:57;;;;;;;1.85;0.45;;;18.20;65.90;;;;;;6578573;21;20217;-84
2024/04/15 01:12:24;;;;;;;0.70;0.57;;;18.20;65.80;;;;;;6577857;21;20249;-84
2024/04/15 01:14:51;;;;;;;0.80;0.40;;;18.20;66.00;;;;;;6577781;21;20237;-84
2024/04/15 01:17:16;;;;;;;1.33;0.40;;;18.20;65.80;;;;;;6534707;21;20221;-84
2024/04/15 01:19:42;;;;;;;0.28;0.28;;;18.20;65.90;;;;;;6578005;21;20259;-83
2024/04/15 01:22:09;;;;;;;0.40;0.40;;;18.20;65.90;;;;;;6578141;21;20307;-84
2024/04/15 01:24:41;;;;;;;0.40;0.40;;;18.30;65.80;;;;;;6534330;21;20539;-84
2024/04/15 01:27:07;;;;;;;0.60;0.40;;;18.20;65.70;;;;;;6533553;21;20268;-84
2024/04/15 01:29:33;;;;;;;1.17;0.40;;;18.20;66.80;;;;;;6577993;21;20229;-84
2024/04/15 01:32:00;;;;;;;0.35;0.30;;;18.30;65.90;;;;;;6491735;21;20547;-83
2024/04/15 01:34:26;;;;;;;0.25;0.25;;;18.20;65.80;;;;;;6534612;21;20213;-84
2024/04/15 01:36:52;;;;;;;0.60;0.40;;;18.20;66.00;;;;;;6578198;21;20219;-84
2024/04/15 01:39:18;;;;;;;0.50;0.32;;;18.20;66.00;;;;;;6580384;21;20553;-83
2024/04/15 01:41:46;;;;;;;0.50;0.47;;;18.20;66.00;;;;;;6579989;21;20648;-83
2024/04/15 01:44:11;;;;;;;0.35;0.30;;;18.10;66.00;;;;;;6579852;21;20217;-84
2024/04/15 01:46:37;;;;;;;0.85;0.60;;;18.20;66.00;;;;;;6581998;21;20653;-83
2024/04/15 01:49:03;;;;;;;0.88;0.40;;;18.10;66.00;;;;;;6581942;21;20217;-83
2024/04/15 01:51:30;;;;;;;0.82;0.40;;;18.10;66.00;;;;;;6580108;21;20217;-84
2024/04/15 01:53:56;;;;;;;0.60;0.40;;;18.10;66.70;;;;;;6494218;21;20225;-84
2024/04/15 01:56:21;;;;;;;0.50;0.40;;;18.10;66.00;;;;;;6492787;21;20229;-83
2024/04/15 01:58:47;;;;;;;0.73;0.40;;;18.10;66.10;;;;;;6493227;21;20213;-84
2024/04/15 02:01:14;;;;;;;1.00;0.50;;;18.10;66.20;;;;;;6493671;21;20240;-83
2024/04/15 02:03:42;;;;;;;0.80;0.43;;;18.10;66.30;;;;;;6493412;21;20256;-84
2024/04/15 02:06:09;;;;;;;0.25;0.25;;;18.10;66.10;;;;;;6536986;21;20233;-83
2024/04/15 02:08:36;;;;;;;0.60;0.50;;;18.10;66.10;;;;;;6536423;21;20209;-84
2024/04/15 02:11:02;;;;;;;0.30;0.30;;;18.10;66.10;;;;;;6536083;21;20224;-84
2024/04/15 02:13:29;;;;;;;0.35;0.30;;;18.10;66.30;;;;;;6581839;21;20799;-84
2024/04/15 02:15:54;;;;;;;0.40;0.40;;;18.10;66.20;;;;;;6536260;21;20264;-85
2024/04/15 02:18:21;;;;;;;0.47;0.38;;;18.10;66.10;;;;;;6492759;21;20221;-83
2024/04/15 02:20:47;;;;;;;0.35;0.35;;;18.10;66.10;;;;;;6536033;21;20213;-83
2024/04/15 02:23:13;;;;;;;1.23;0.30;;;18.10;66.10;;;;;;6536315;21;20700;-84
2024/04/15 02:25:41;;;;;;;0.95;0.32;;;18.00;66.00;;;;;;6536009;21;20259;-84
2024/04/15 02:28:10;;;;;;;0.40;0.32;;;18.10;66.10;;;;;;6536118;21;20218;-84
2024/04/15 02:30:36;;;;;;;0.75;0.45;;;18.10;66.10;;;;;;6536066;21;20268;-85
2024/04/15 02:33:03;;;;;;;0.68;0.30;;;18.10;66.20;;;;;;6451256;21;20208;-83
2024/04/15 02:35:29;;;;;;;0.52;0.38;;;18.10;66.10;;;;;;6493455;21;20260;-83
2024/04/15 02:37:55;;;;;;;0.30;0.30;;;18.10;66.30;;;;;;6535495;21;20257;-84
2024/04/15 02:40:21;;;;;;;0.43;0.43;;;18.00;66.30;;;;;;6493332;21;20673;-85
2024/04/15 02:42:47;;;;;;;0.40;0.40;;;18.00;66.30;;;;;;6493437;21;20885;-84
2024/04/15 02:45:12;;;;;;;0.40;0.30;;;18.00;66.30;;;;;;6450959;21;20228;-84
2024/04/15 02:47:38;;;;;;;0.80;0.50;;;18.00;66.10;;;;;;6493415;21;20750;-84
2024/04/15 02:50:04;;;;;;;0.30;0.30;;;18.00;66.20;;;;;;6450839;21;20225;-84
2024/04/15 02:52:30;;;;;;;0.73;0.30;;;18.10;66.30;;;;;;6493148;21;20701;-84
2024/04/15 02:54:56;;;;;;;0.68;0.30;;;18.00;66.30;;;;;;6491621;21;20221;-84
2024/04/15 02:57:22;;;;;;;0.80;0.45;;;18.00;66.10;;;;;;6492190;21;20507;-83
2024/04/15 02:59:48;;;;;;;0.40;0.40;;;17.90;66.10;;;;;;6535462;21;20583;-84
2024/04/15 03:02:14;;;;;;;0.45;0.40;;;18.00;66.10;;;;;;6492677;21;20225;-84
2024/04/15 03:04:40;;;;;;;0.43;0.30;;;18.00;66.10;;;;;;6493144;21;20323;-84
2024/04/15 03:07:07;;;;;;;0.28;0.22;;;18.10;66.00;;;;;;6493151;21;20217;-84
2024/04/15 03:09:33;;;;;;;0.40;0.30;;;18.00;66.10;;;;;;6535387;21;20225;-85
2024/04/15 03:12:01;;;;;;;0.90;0.50;;;18.00;66.00;;;;;;6492399;21;20251;-84
2024/04/15 03:14:27;;;;;;;0.52;0.32;;;18.00;66.10;;;;;;6450385;21;20221;-84
2024/04/15 03:16:52;;;;;;;0.40;0.40;;;18.00;66.20;;;;;;6450279;21;20318;-85
2024/04/15 03:19:18;;;;;;;0.43;0.30;;;18.00;66.10;;;;;;6492688;21;20255;-84
2024/04/15 03:21:44;;;;;;;0.30;0.30;;;18.00;66.10;;;;;;6492839;21;20773;-85
2024/04/15 03:24:10;;;;;;;0.93;0.50;;;18.10;67.00;;;;;;6555035;21;20352;-84
2024/04/15 03:26:35;;;;;;;0.68;0.40;;;18.00;66.10;;;;;;6535471;21;20217;-83
2024/04/15 03:29:01;;;;;;;0.40;0.40;;;18.00;66.00;;;;;;6535565;21;20715;-84
2024/04/15 03:31:27;;;;;;;0.60;0.40;;;18.00;65.90;;;;;;6536592;21;20582;-84
2024/04/15 03:33:53;;;;;;;0.38;0.30;;;18.10;66.00;;;;;;6493614;21;20545;-84
2024/04/15 03:36:18;;;;;;;0.68;0.30;;;18.00;66.10;;;;;;6494086;21;20571;-85
2024/04/15 03:38:44;;;;;;;0.55;0.38;;;18.00;66.10;;;;;;6581980;21;20243;-85
2024/04/15 03:41:10;;;;;;;0.43;0.40;;;18.00;66.00;;;;;;6494564;21;20240;-83
2024/04/15 03:43:37;;;;;;;0.65;0.40;;;18.00;65.90;;;;;;6536173;21;20248;-83
2024/04/15 03:46:03;;;;;;;1.33;0.40;;;18.00;65.90;;;;;;6493841;21;20228;-84
2024/04/15 03:48:31;;;;;;;1.20;0.40;;;18.00;66.00;;;;;;6536488;21;20264;-85
2024/04/15 03:50:56;;;;;;;0.40;0.40;;;18.00;66.00;;;;;;6493775;21;20221;-85
2024/04/15 03:53:22;;;;;;;0.80;0.40;;;18.10;65.90;;;;;;6493872;21;20221;-84
2024/04/15 03:55:55;;;;;;;0.32;0.32;;;18.00;65.90;;;;;;6535322;21;20272;-84
2024/04/15 03:58:21;;;;;;;0.30;0.30;;;18.10;66.60;;;;;;6535181;21;20288;-84
2024/04/15 04:00:51;;;;;;;0.55;0.40;;;18.10;66.00;;;;;;6534657;21;20661;-84
2024/04/15 04:03:17;;;;;;;0.30;0.30;;;18.00;65.90;;;;;;6448778;21;20281;-84
2024/04/15 04:05:43;;;;;;;1.45;0.50;;;18.10;65.90;;;;;;6578989;21;20208;-84
2024/04/15 04:08:09;;;;;;;0.77;0.45;;;18.00;65.90;;;;;;6535670;21;20505;-84
2024/04/15 04:10:35;;;;;;;0.40;0.40;;;18.10;65.70;;;;;;6491752;21;20224;-84
2024/04/15 04:13:01;;;;;;;0.30;0.30;;;18.10;65.80;;;;;;6535193;21;20521;-83
2024/04/15 04:15:26;;;;;;;0.30;0.30;;;18.20;65.80;;;;;;6534665;21;20528;-83
2024/04/15 04:17:52;;;;;;;0.35;0.35;;;18.10;65.80;;;;;;6580022;21;20657;-83
2024/04/15 04:20:19;;;;;;;0.50;0.40;;;18.10;65.80;;;;;;6578435;21;20587;-84
2024/04/15 04:22:45;;;;;;;0.47;0.30;;;18.10;65.70;;;;;;6578158;21;20225;-84
2024/04/15 04:25:10;;;;;;;0.50;0.30;;;18.10;65.60;;;;;;6577625;21;20233;-83
2024/04/15 04:27:36;;;;;;;0.55;0.30;;;18.10;65.60;;;;;;6534652;21;20221;-83
2024/04/15 04:30:02;;;;;;;0.30;0.30;;;18.10;65.70;;;;;;6534341;21;20224;-83
2024/04/15 04:32:31;;;;;;;1.35;0.50;;;18.00;65.60;;;;;;6533975;21;20507;-84
2024/04/15 04:34:58;;;;;;;0.40;0.30;;;18.10;65.60;;;;;;6533982;21;20322;-85
2024/04/15 04:37:23;;;;;;;0.90;0.45;;;18.10;65.60;;;;;;6533407;21;20221;-84
2024/04/15 04:39:50;;;;;;;0.30;0.30;;;18.00;65.50;;;;;;6534678;21;20262;-84
2024/04/15 04:42:17;;;;;;;0.47;0.30;;;18.00;65.70;;;;;;6534484;21;20251;-83
2024/04/15 04:44:42;;;;;;;0.30;0.30;;;18.00;65.60;;;;;;6534706;21;20220;-84
2024/04/15 04:47:08;;;;;;;0.40;0.40;;;18.10;65.60;;;;;;6490979;21;20221;-84
2024/04/15 04:49:34;;;;;;;0.30;0.30;;;18.10;65.60;;;;;;6577238;21;20563;-84
2024/04/15 04:52:01;;;;;;;0.38;0.30;;;18.10;65.60;;;;;;6577825;21;20581;-83
2024/04/15 04:54:26;;;;;;;0.75;0.40;;;18.10;65.50;;;;;;6579107;21;20335;-84
2024/04/15 04:56:53;;;;;;;0.52;0.38;;;18.10;65.30;;;;;;6491351;21;20652;-83
2024/04/15 04:59:19;;;;;;;0.30;0.30;;;18.10;65.50;;;;;;6534703;21;20221;-83
2024/04/15 05:01:45;;;;;;;0.40;0.40;;;18.10;65.40;;;;;;6534407;21;20668;-84
2024/04/15 05:04:12;;;;;;;0.47;0.40;;;18.10;65.40;;;;;;6491637;21;20311;-84
2024/04/15 05:06:37;;;;;;;0.32;0.30;;;18.10;65.30;;;;;;6535141;21;20209;-84
2024/04/15 05:09:03;;;;;;;0.40;0.38;;;18.10;65.40;;;;;;6534541;21;20263;-84
2024/04/15 05:11:29;;;;;;;0.40;0.40;;;18.10;65.50;;;;;;6578880;21;20217;-85
2024/04/15 05:13:55;;;;;;;1.33;0.47;;;18.10;65.30;;;;;;6582277;21;20213;-84
2024/04/15 05:16:24;;;;;;;0.52;0.40;;;18.10;65.30;;;;;;6580081;21;20376;-84
2024/04/15 05:18:52;;;;;;;0.45;0.40;;;18.10;65.40;;;;;;6580052;21;20314;-84
2024/04/15 05:21:19;;;;;;;0.50;0.32;;;18.10;65.40;;;;;;6580125;21;20209;-83
2024/04/15 05:23:45;;;;;;;0.28;0.22;;;18.10;65.40;;;;;;6493539;21;20268;-83
2024/04/15 05:26:10;;;;;;;0.85;0.38;;;18.10;65.20;;;;;;6536982;21;20216;-84
2024/04/15 05:28:36;;;;;;;0.80;0.40;;;18.10;65.10;;;;;;6536742;21;20221;-83
2024/04/15 05:31:02;;;;;;;0.35;0.35;;;18.10;65.20;;;;;;6494232;21;20283;-84
2024/04/15 05:33:28;;;;;;;0.30;0.30;;;18.10;65.20;;;;;;6537447;21;20547;-83
2024/04/15 05:35:54;;;;;;;0.40;0.40;;;18.10;65.00;;;;;;6494651;21;20225;-83
2024/04/15 05:38:19;;;;;;;0.50;0.38;;;18.20;65.20;;;;;;6537678;21;20225;-84
2024/04/15 05:40:46;;;;;;;0.35;0.35;;;18.10;65.00;;;;;;6494700;21;20217;-84
2024/04/15 05:43:12;;;;;;;0.43;0.32;;;18.10;65.10;;;;;;6537870;21;20260;-83
2024/04/15 05:45:43;;;;;;;0.70;0.40;;;18.10;65.00;;;;;;6538717;21;20217;-84
2024/04/15 05:48:10;;;;;;;0.65;0.30;;;18.10;65.10;;;;;;6495670;21;20677;-84
2024/04/15 05:50:37;;;;;;;0.30;0.30;;;18.20;65.10;;;;;;6538310;21;20217;-83
2024/04/15 05:53:03;;;;;;;0.38;0.30;;;18.10;65.10;;;;;;6495070;21;20221;-84
2024/04/15 05:55:28;;;;;;;0.35;0.32;;;18.20;65.10;;;;;;6494035;21;20300;-84
2024/04/15 05:57:54;;;;;;;0.35;0.30;;;18.10;65.10;;;;;;6495088;21;20699;-85
2024/04/15 06:00:20;;;;;;;0.35;0.30;;;18.10;65.10;;;;;;6495370;21;20251;-84
2024/04/15 06:02:46;;;;;;;0.93;0.40;;;18.10;65.10;;;;;;6538839;21;20649;-85
2024/04/15 06:05:12;;;;;;;0.38;0.30;;;18.10;64.90;;;;;;6495027;21;20225;-83
2024/04/15 06:07:37;;;;;;;0.32;0.30;;;18.10;65.00;;;;;;6494758;21;20221;-84
2024/04/15 06:10:04;;;;;;;0.47;0.40;;;18.10;64.80;;;;;;6537612;21;20229;-83
2024/04/15 06:12:31;;;;;;;0.30;0.30;;;18.10;64.90;;;;;;6537708;21;20213;-84
2024/04/15 06:14:59;;;;;;;1.70;0.40;;;18.20;64.30;;;;;;6494355;21;20321;-83
2024/04/15 06:17:25;;;;;;;0.52;0.20;;;18.20;64.30;;;;;;6538352;21;20217;-84
2024/04/15 06:19:50;;;;;;;0.20;0.20;;;18.20;63.50;;;;;;6538635;21;20268;-85
2024/04/15 06:22:16;;;;;;;0.60;0.30;;;18.30;63.60;;;;;;6539087;21;20210;-83
2024/04/15 06:24:42;;;;;;;0.20;0.20;;;18.30;63.80;;;;;;6495396;21;20697;-84
2024/04/15 06:27:08;;;;;;;0.35;0.35;;;18.30;63.40;;;;;;6452296;21;20244;-84
2024/04/15 06:29:36;;;;;;;1.17;0.30;;;18.40;63.40;;;;;;6495350;21;20225;-84
2024/04/15 06:32:02;;;;;;;0.40;0.40;;;18.40;63.30;;;;;;6496939;21;20213;-85
2024/04/15 06:34:33;;;;;;;0.30;0.30;;;18.40;63.40;;;;;;6495936;21;20268;-83
2024/04/15 06:36:59;;;;;;;0.30;0.30;;;18.40;63.00;;;;;;6453689;21;20221;-84
2024/04/15 06:39:25;;;;;;;0.35;0.30;;;18.40;63.20;;;;;;6494815;21;20256;-84
2024/04/15 06:41:53;;;;;;;0.20;0.20;;;18.40;63.00;;;;;;6494546;21;20225;-84
2024/04/15 06:44:21;;;;;;;0.30;0.30;;;18.40;63.10;;;;;;6451490;21;20217;-84
2024/04/15 06:46:54;;;;;;;0.30;0.30;;;18.40;63.30;;;;;;6455609;21;20537;-84
2024/04/15 06:49:20;;;;;;;0.63;0.43;;;18.40;63.40;;;;;;6502011;21;20244;-84
2024/04/15 06:51:46;;;;;;;3.80;0.32;;;18.30;63.30;;;;;;6460282;21;20251;-83
2024/04/15 06:54:16;;;;;;;0.28;0.28;;;18.40;62.50;;;;;;6458075;21;20482;-84
2024/04/15 06:56:44;;;;;;;0.32;0.30;;;18.40;63.30;;;;;;6544602;21;20325;-83
2024/04/15 06:59:17;;;;;;;1.17;0.30;;;18.50;62.50;;;;;;6540720;21;20220;-83
2024/04/15 07:01:54;;;;;;;0.70;0.40;;;18.50;61.90;;;;;;6460162;21;20257;-83
2024/04/15 07:04:38;;;;;;;0.30;0.30;;;18.50;62.40;;;;;;6501324;21;20264;-83
2024/04/15 07:07:27;;;;;;;0.52;0.22;;;18.50;61.80;;;;;;6505625;21;20220;-83
2024/04/15 07:09:59;;;;;;;0.38;0.20;;;18.60;62.10;;;;;;6502597;21;20244;-82
2024/04/15 07:12:29;;;;;;;0.30;0.30;;;18.60;61.60;;;;;;6457910;21;20225;-82
2024/04/15 07:15:01;;;;;;;0.30;0.30;;;18.60;62.70;;;;;;6502533;21;20322;-82
2024/04/15 07:17:27;;;;;;;0.65;0.30;;;18.60;62.40;;;;;;6460088;21;20225;-82
2024/04/15 07:19:55;;;;;;;0.30;0.30;;;18.60;62.00;;;;;;6458584;21;20220;-83
2024/04/15 07:22:23;;;;;;;0.40;0.38;;;18.60;62.50;;;;;;6500809;21;20271;-83
2024/04/15 07:24:53;;;;;;;0.20;0.20;;;18.60;62.60;;;;;;6537184;21;20225;-83
2024/04/15 07:27:24;;;;;;;0.40;0.40;;;18.60;62.40;;;;;;6441944;22;20263;-82
2024/04/15 07:29:50;;;;;;;0.30;0.30;;;18.60;62.10;;;;;;6361073;22;20317;-83
2024/04/15 07:32:16;;;;;;;0.30;0.30;;;18.70;61.80;;;;;;6398399;22;20619;-83
2024/04/15 07:34:49;;;;;;;0.43;0.32;;;18.70;62.10;;;;;;6438790;22;20278;-83
2024/04/15 07:37:18;;;;;;;0.25;0.25;;;18.70;61.90;;;;;;6357539;22;20219;-82
2024/04/15 07:39:46;;;;;;;1.10;0.30;;;18.70;62.00;;;;;;6441335;22;20269;-82
2024/04/15 07:42:33;;;;;;;2.28;0.30;;;18.70;63.40;;;;;;6400499;22;20258;-83
2024/04/15 07:45:11;;;;;;;0.70;0.50;;;18.60;61.90;;;;;;6331356;22;20318;-82
2024/04/15 07:47:49;;;;;;;1.65;0.35;;;18.70;62.20;;;;;;6207483;22;20227;-83
2024/04/15 07:50:18;;;;;;;2.00;0.43;;;18.70;61.70;;;;;;6244334;22;20298;-83
2024/04/15 07:52:48;;;;;;;1.02;0.20;;;18.80;61.40;;;;;;6365647;22;20229;-82
2024/04/15 07:55:18;;;;;;;0.30;0.30;;;18.80;60.80;;;;;;6290726;22;20290;-82
2024/04/15 07:57:53;;;;;;;0.30;0.30;;;18.80;61.60;;;;;;6254116;22;20227;-83
2024/04/15 08:00:25;;;;;;;1.92;0.25;;;18.80;61.10;;;;;;6259408;22;20230;-82
2024/04/15 08:02:55;;;;;;;0.30;0.20;;;18.80;62.10;;;;;;6143401;22;20332;-84
2024/04/15 08:05:24;;;;;;;1.60;0.40;;;18.80;61.70;;;;;;6246077;22;20223;-84
2024/04/15 08:07:52;;;;;;;0.63;0.30;;;18.80;62.10;;;;;;6206759;22;20235;-84
2024/04/15 08:10:21;;;;;;;0.95;0.40;;;18.80;61.90;;;;;;6247446;22;20235;-83
2024/04/15 08:12:57;;;;;;;0.20;0.20;;;18.80;61.80;;;;;;6247383;22;20663;-84
2024/04/15 08:15:38;;;;;;;0.25;0.20;;;18.80;61.40;;;;;;6155697;23;20285;-84
2024/04/15 08:18:04;;;;;;;0.55;0.30;;;18.90;62.80;;;;;;6206422;23;20283;-83
2024/04/15 08:20:38;;;;;;;1.40;0.40;;;18.80;62.00;;;;;;6158142;23;20232;-82
2024/04/15 08:23:04;;;;;;;0.45;0.30;;;18.80;62.20;;;;;;6166078;22;20228;-81
2024/04/15 08:25:42;;;;;;;0.20;0.20;;;18.80;61.80;;;;;;6244095;22;20235;-83
2024/04/15 08:28:08;;;;;;;1.15;0.30;;;18.80;61.70;;;;;;6245964;22;20276;-83
2024/04/15 08:30:39;;;;;;;0.30;0.30;;;18.80;61.40;;;;;;6245732;22;20259;-82
2024/04/15 08:33:08;;;;;;;0.60;0.30;;;18.80;61.00;;;;;;6245705;22;20515;-82
2024/04/15 08:35:41;;;;;;;0.25;0.25;;;18.80;61.60;;;;;;6151621;23;20225;-83
2024/04/15 08:38:11;;;;;;;0.88;0.50;;;18.80;61.60;;;;;;6075146;23;20229;-82
2024/04/15 08:40:50;;;;;;;1.33;0.40;;;18.90;61.80;;;;;;6223308;22;20274;-81
2024/04/15 08:43:18;;;;;;;0.30;0.25;;;18.80;61.80;;;;;;6269076;22;20280;-83
2024/04/15 08:45:43;;;;;;;2.25;0.30;;;18.80;61.40;;;;;;6405063;22;20223;-83
2024/04/15 08:48:13;;;;;;;1.45;0.32;;;18.80;62.00;;;;;;6400591;22;20219;-81
2024/04/15 08:50:39;;;;;;;0.68;0.30;;;18.90;61.60;;;;;;6358919;22;20227;-83
2024/04/15 08:53:08;;;;;;;1.02;0.50;;;18.90;61.70;;;;;;6401745;22;20223;-83
2024/04/15 08:55:34;;;;;;;0.40;0.30;;;18.80;61.70;;;;;;6399385;22;20265;-81
2024/04/15 08:58:27;;;;;;;0.35;0.30;;;18.90;61.40;;;;;;6398437;22;20214;-82
2024/04/15 09:00:53;;;;;;;1.45;0.40;;;18.90;61.40;;;;;;6333107;22;20223;-83
2024/04/15 09:03:19;;;;;;;4.28;0.40;;;18.90;61.10;;;;;;6253059;22;20253;-82
2024/04/15 09:05:48;;;;;;;1.95;0.40;;;18.90;61.20;;;;;;6273060;22;20250;-83
2024/04/15 09:08:48;;;;;;;;;;;;;;;;;;;;;
2024/04/15 09:11:21;;;;;;;0.63;0.40;;;18.90;62.00;;;;;;6309223;22;20224;-82
2024/04/15 09:13:56;;;;;;;3.03;0.70;;;19.00;62.00;;;;;;6349537;22;20236;-83
2024/04/15 09:16:49;;;;;;;2.05;0.50;;;18.90;61.90;;;;;;6289595;22;20227;-83
2024/04/15 09:19:25;;;;;;;4.53;0.45;;;18.90;62.70;;;;;;6296713;22;20249;-83
2024/04/15 09:22:03;;;;;;;1.95;0.40;;;18.80;62.90;;;;;;6331637;22;20233;-83
2024/04/15 09:24:47;;;;;;;1.80;0.50;;;18.80;63.00;;;;;;6291163;22;20230;-82
2024/04/15 09:27:39;;;;;;;3.15;0.50;;;18.80;63.00;;;;;;6290196;22;20265;-82
2024/04/15 09:30:07;;;;;;;1.80;0.45;;;18.80;63.20;;;;;;6251126;22;20222;-82
2024/04/15 09:32:37;;;;;;;3.45;0.50;;;18.80;63.30;;;;;;6246981;22;20223;-82
2024/04/15 09:35:59;;;;;;;3.05;0.50;;;18.80;63.40;;;;;;6279610;22;20264;-83
2024/04/15 09:38:20;;;;;;;2.67;0.60;;;18.80;63.20;;;;;;6386771;22;20684;-82
2024/04/15 09:40:49;;;;;;;2.80;0.50;;;18.80;63.20;;;;;;6291585;22;20237;-83
2024/04/15 09:43:46;;;;;;;2.42;0.80;;;18.80;63.10;;;;;;6149825;23;20241;-83
2024/04/15 09:46:57;;;;;;;5.10;0.50;;;18.80;62.70;;;;;;6190958;22;20562;-83
2024/04/15 09:49:36;;;;;;;;;;;;;;;;;;;;;
2024/04/15 09:52:08;;;;;;;1.02;0.60;;;18.70;62.90;;;;;;6206640;22;20250;-83
2024/04/15 09:54:36;;;;;;;4.65;0.50;;;18.80;62.60;;;;;;6244734;22;20282;-83
2024/04/15 09:57:16;;;;;;;1.05;0.50;;;18.80;62.60;;;;;;6205027;22;20254;-83
2024/04/15 09:59:44;;;;;;;0.77;0.40;;;18.90;62.50;;;;;;6206221;22;20223;-82
2024/04/15 10:02:18;;;;;;;1.73;0.70;;;18.80;62.30;;;;;;6245714;22;20223;-82
2024/04/15 10:04:46;;;;;;;1.05;0.40;;;18.80;62.40;;;;;;6205789;22;20230;-82
2024/04/15 10:07:12;;;;;;;1.65;0.32;;;18.80;62.30;;;;;;6206430;22;20239;-83
2024/04/15 10:09:37;;;;;;;0.60;0.30;;;18.80;62.20;;;;;;6243505;22;20246;-82
2024/04/15 10:12:03;;;;;;;1.60;0.40;;;18.80;62.00;;;;;;6233910;22;20742;-82
2024/04/15 10:14:30;;;;;;;0.60;0.30;;;18.80;62.00;;;;;;6351672;22;20220;-82
2024/04/15 10:16:55;;;;;;;0.98;0.47;;;18.80;62.20;;;;;;6390178;22;20224;-82
2024/04/15 10:19:32;;;;;;;1.92;0.32;;;18.80;62.10;;;;;;6346849;22;20758;-81
2024/04/15 10:22:22;;;;;;;1.15;0.30;;;18.80;62.40;;;;;;6551684;21;20261;-82
2024/04/15 10:24:48;;;;;;;0.38;0.38;;;18.80;61.80;;;;;;6512810;21;20229;-82
2024/04/15 10:27:25;;;;;;;0.70;0.30;;;18.80;62.20;;;;;;6509495;21;20225;-83
2024/04/15 10:29:53;;;;;;;2.50;0.50;;;18.80;62.10;;;;;;6544416;21;20243;-83
2024/04/15 10:32:24;;;;;;;0.65;0.40;;;18.80;62.20;;;;;;6544106;21;20217;-84
2024/04/15 10:34:50;;;;;;;0.88;0.32;;;18.80;62.00;;;;;;6461904;21;20508;-83
2024/04/15 10:37:37;;;;;;;0.90;0.40;;;18.80;61.60;;;;;;6505287;21;20300;-81
2024/04/15 10:40:07;;;;;;;1.80;0.40;;;18.80;61.80;;;;;;6500318;21;20275;-82
2024/04/15 10:42:36;;;;;;;1.98;0.45;;;18.80;61.60;;;;;;6455218;21;20240;-82
2024/04/15 10:45:02;;;;;;;1.80;0.50;;;18.90;61.30;;;;;;6453389;21;20221;-81
2024/04/15 10:47:30;;;;;;;1.20;0.30;;;18.90;61.50;;;;;;6496559;21;20213;-82
2024/04/15 10:49:56;;;;;;;1.75;0.40;;;18.90;61.60;;;;;;6453846;21;20217;-82
2024/04/15 10:52:23;;;;;;;1.75;0.40;;;18.90;61.20;;;;;;6498139;21;20227;-82
2024/04/15 10:55:18;;;;;;;1.23;0.30;;;18.90;61.20;;;;;;6502081;21;20335;-83
2024/04/15 10:57:52;;;;;;;2.05;0.40;;;18.90;61.40;;;;;;6439629;22;20644;-82
2024/04/15 11:00:23;;;;;;;1.38;0.40;;;18.90;61.10;;;;;;6304057;22;20229;-83
2024/04/15 11:02:53;;;;;;;1.23;0.40;;;18.90;61.60;;;;;;6300343;22;20225;-83
2024/04/15 11:05:22;;;;;;;2.22;0.43;;;18.90;61.40;;;;;;6299511;22;20298;-83
2024/04/15 11:07:51;;;;;;;0.50;0.30;;;18.90;61.10;;;;;;6301237;22;20408;-82
2024/04/15 11:10:27;;;;;;;0.20;0.20;;;18.80;61.80;;;;;;6260496;22;20272;-82
2024/04/15 11:12:56;;;;;;;0.38;0.30;;;18.80;61.40;;;;;;6292776;22;20222;-82
2024/04/15 11:15:22;;;;;;;0.75;0.40;;;18.80;61.00;;;;;;6254280;22;20226;-82
2024/04/15 11:17:48;;;;;;;0.30;0.30;;;18.80;61.30;;;;;;6251331;22;20253;-83
2024/04/15 11:20:17;;;;;;;1.33;0.30;;;18.80;61.20;;;;;;6251773;22;20219;-82
2024/04/15 11:22:43;;;;;;;0.63;0.43;;;18.80;60.90;;;;;;6252131;22;20290;-82
2024/04/15 11:25:15;;;;;;;1.92;0.30;;;18.90;61.10;;;;;;6249251;22;20547;-83
2024/04/15 11:27:46;;;;;;;0.22;0.22;;;18.80;60.70;;;;;;6243629;22;20328;-82
2024/04/15 11:30:20;;;;;;;1.75;0.40;;;18.90;61.30;;;;;;6250394;22;20227;-81
2024/04/15 11:32:48;;;;;;;2.30;0.38;;;18.80;60.50;;;;;;6260995;22;20253;-80
2024/04/15 11:35:23;;;;;;;3.15;0.32;;;18.90;61.00;;;;;;6306288;22;20219;-81
2024/04/15 11:38:01;;;;;;;0.25;0.25;;;18.80;61.50;;;;;;6291286;22;20222;-83
2024/04/15 11:40:35;;;;;;;0.75;0.30;;;18.80;60.80;;;;;;6212044;22;20295;-81
2024/04/15 11:43:02;;;;;;;0.10;0.10;;;18.80;61.20;;;;;;6244940;22;20235;-81
2024/04/15 11:45:29;;;;;;;0.57;0.40;;;18.80;60.40;;;;;;6161748;23;20221;-80
2024/04/15 11:48:00;;;;;;;1.38;0.40;;;18.90;60.60;;;;;;6160944;23;20694;-80
2024/04/15 11:50:26;;;;;;;0.35;0.30;;;18.90;61.00;;;;;;6124943;23;20297;-80
2024/04/15 11:52:58;;;;;;;2.72;0.40;;;18.90;60.40;;;;;;6161984;23;20224;-80
2024/04/15 11:55:24;;;;;;;2.50;0.32;;;18.90;60.70;;;;;;6126270;23;20228;-81
2024/04/15 11:57:50;;;;;;;8.00;1.00;;;18.90;60.30;;;;;;6188785;22;20295;-80
2024/04/15 12:00:16;;;;;;;4.35;0.85;;;19.00;60.60;;;;;;6342724;22;20229;-80
2024/04/15 12:02:43;;;;;;;2.05;0.38;;;18.90;61.40;;;;;;6311191;22;20704;-80
2024/04/15 12:05:12;;;;;;;3.97;0.50;;;18.90;61.10;;;;;;6394933;22;20510;-80
2024/04/15 12:07:40;;;;;;;5.93;0.40;;;18.90;60.70;;;;;;6433885;22;20220;-81
2024/04/15 12:10:06;;;;;;;4.28;0.43;;;18.90;61.10;;;;;;6390912;22;20345;-81
2024/04/15 12:12:33;;;;;;;5.32;0.50;;;18.90;60.40;;;;;;6390432;22;20217;-80
2024/04/15 12:14:59;;;;;;;3.95;0.50;;;18.90;61.10;;;;;;6390510;22;20220;-80
2024/04/15 12:17:26;;;;;;;1.88;0.40;;;18.80;60.70;;;;;;6431244;22;20266;-79
2024/04/15 12:19:52;;;;;;;1.85;0.50;;;18.90;60.40;;;;;;6390664;22;20308;-80
2024/04/15 12:22:21;;;;;;;3.00;0.60;;;18.90;60.70;;;;;;6388729;22;20299;-80
2024/04/15 12:24:47;;;;;;;1.55;0.40;;;18.90;61.00;;;;;;6532519;21;20284;-80
2024/04/15 12:27:20;;;;;;;3.45;0.45;;;18.90;60.30;;;;;;6544549;21;20216;-80
2024/04/15 12:29:46;;;;;;;0.93;0.30;;;18.90;60.60;;;;;;6546919;21;20253;-81
2024/04/15 12:32:12;;;;;;;3.63;0.50;;;18.90;60.90;;;;;;6538865;22;20250;-80
2024/04/15 12:34:37;;;;;;;2.15;0.40;;;18.90;60.60;;;;;;6451125;22;20223;-81
2024/04/15 12:37:04;;;;;;;1.02;0.45;;;18.90;60.30;;;;;;6534411;22;20282;-81
2024/04/15 12:39:32;;;;;;;0.70;0.22;;;18.90;60.00;;;;;;6494332;22;20222;-83
2024/04/15 12:41:58;;;;;;;2.90;0.40;;;18.90;60.00;;;;;;6491834;22;20218;-81
2024/04/15 12:44:24;;;;;;;2.28;0.40;;;18.90;59.90;;;;;;6532990;22;20214;-80
2024/04/15 12:46:50;;;;;;;1.38;0.50;;;18.90;59.90;;;;;;6493426;22;20593;-80
2024/04/15 12:49:19;;;;;;;1.40;0.50;;;18.90;60.10;;;;;;6450889;22;20812;-81
2024/04/15 12:51:47;;;;;;;2.20;0.40;;;18.90;59.80;;;;;;6495697;22;20230;-80
2024/04/15 12:54:12;;;;;;;1.98;0.40;;;18.90;60.00;;;;;;6452619;22;20217;-80
2024/04/15 12:56:40;;;;;;;2.25;0.57;;;18.90;59.60;;;;;;6495550;22;20217;-80